Time;durP1;ratioP1;P1;durP2;ratioP2;P2;SDS_P1;SDS_P2;PMS_P1;PMS_P2;Temp;Humidity;BMP_temperature;BMP_pressure;BME280_temperature;BME280_humidity;BME280_pressure;Samples;Min_cycle;Max_cycle;Signal;HPM_P1;HPM_P2
2023/09/03 00:00:50;;;;;;;11.38;10.20;;;;;;;;;;5005722;28;20444;-73
2023/09/03 00:03:15;;;;;;;12.23;11.05;;;;;;;;;;5001358;28;20133;-73
2023/09/03 00:05:49;;;;;;;17.83;11.23;;;;;;;;;;5005823;28;20037;-73
2023/09/03 00:08:14;;;;;;;11.82;10.65;;;;;;;;;;5005770;28;20750;-73
2023/09/03 00:10:40;;;;;;;11.18;10.18;;;;;;;;;;5007887;28;20042;-73
2023/09/03 00:13:05;;;;;;;12.80;10.68;;;;;;;;;;5002323;28;20037;-73
2023/09/03 00:15:31;;;;;;;13.02;10.65;;;;;;;;;;5020219;28;20092;-73
2023/09/03 00:17:57;;;;;;;11.65;10.48;;;;;;;;;;5020797;28;20038;-73
2023/09/03 00:20:23;;;;;;;13.27;10.30;;;;;;;;;;5004079;28;20109;-73
2023/09/03 00:22:48;;;;;;;11.80;10.73;;;;;;;;;;5004487;28;20041;-72
2023/09/03 00:25:14;;;;;;;11.40;10.48;;;;;;;;;;4989926;28;20156;-72
2023/09/03 00:27:39;;;;;;;11.55;10.40;;;;;;;;;;5004918;28;20041;-73
2023/09/03 00:30:05;;;;;;;12.68;10.70;;;;;;;;;;5003199;28;20037;-72
2023/09/03 00:32:31;;;;;;;11.25;10.25;;;;;;;;;;5005073;28;20038;-73
2023/09/03 00:34:58;;;;;;;11.57;10.40;;;;;;;;;;5020250;28;20034;-73
2023/09/03 00:37:24;;;;;;;11.43;10.02;;;;;;;;;;5018625;28;20034;-73
2023/09/03 00:39:49;;;;;;;10.90;9.90;;;;;;;;;;5024154;28;20512;-72
2023/09/03 00:42:15;;;;;;;13.23;10.55;;;;;;;;;;5005931;28;20448;-73
2023/09/03 00:44:40;;;;;;;11.40;10.25;;;;;;;;;;5005640;28;20394;-73
2023/09/03 00:47:07;;;;;;;12.40;10.23;;;;;;;;;;5004319;28;20145;-73
2023/09/03 00:49:32;;;;;;;11.52;10.52;;;;;;;;;;5018861;28;20046;-73
2023/09/03 00:51:58;;;;;;;12.57;10.55;;;;;;;;;;5003349;28;20050;-73
2023/09/03 00:54:24;;;;;;;12.25;9.98;;;;;;;;;;5003910;28;20062;-73
2023/09/03 00:56:52;;;;;;;11.30;10.20;;;;;;;;;;5001009;28;20064;-73
2023/09/03 00:59:19;;;;;;;14.82;10.77;;;;;;;;;;5000966;28;20026;-73
2023/09/03 01:01:49;;;;;;;11.05;10.10;;;;;;;;;;5008701;28;20092;-73
2023/09/03 01:04:14;;;;;;;11.73;10.63;;;;;;;;;;5003431;28;20399;-73
2023/09/03 01:06:40;;;;;;;14.07;10.73;;;;;;;;;;5000924;28;20037;-72
2023/09/03 01:09:06;;;;;;;11.25;10.35;;;;;;;;;;5002918;28;20494;-73
2023/09/03 01:11:49;;;;;;;12.50;10.68;;;;;;;;;;5003197;28;20053;-73
2023/09/03 01:14:42;;;;;;;11.55;10.38;;;;;;;;;;5003879;28;20033;-73
2023/09/03 01:17:29;;;;;;;12.15;11.00;;;;;;;;;;5001006;28;20037;-73
2023/09/03 01:20:25;;;;;;;13.70;10.73;;;;;;;;;;4987371;28;20042;-73
2023/09/03 01:23:22;;;;;;;12.20;10.93;;;;;;;;;;5003754;28;20449;-73
2023/09/03 01:26:09;;;;;;;11.65;10.55;;;;;;;;;;4998163;28;20037;-73
2023/09/03 01:28:38;;;;;;;13.70;11.73;;;;;;;;;;5003642;28;20034;-73
2023/09/03 01:31:09;;;;;;;11.63;10.57;;;;;;;;;;5020294;28;20052;-73
2023/09/03 01:33:38;;;;;;;12.05;10.98;;;;;;;;;;5017975;28;20756;-73
2023/09/03 01:36:06;;;;;;;11.98;10.88;;;;;;;;;;5002520;28;20091;-73
2023/09/03 01:38:38;;;;;;;11.93;10.73;;;;;;;;;;5003045;28;20034;-73
2023/09/03 01:41:05;;;;;;;13.95;10.88;;;;;;;;;;5013943;28;20030;-73
2023/09/03 01:43:31;;;;;;;17.75;11.63;;;;;;;;;;5002702;28;20034;-73
2023/09/03 01:46:18;;;;;;;14.05;12.23;;;;;;;;;;5003302;28;20077;-73
2023/09/03 01:49:04;;;;;;;12.55;11.25;;;;;;;;;;5004700;28;20042;-72
2023/09/03 01:51:55;;;;;;;16.95;11.38;;;;;;;;;;5001216;28;20497;-73
2023/09/03 01:54:25;;;;;;;12.85;10.75;;;;;;;;;;5000567;28;20029;-73
2023/09/03 01:57:01;;;;;;;13.55;10.55;;;;;;;;;;4989044;28;20137;-73
2023/09/03 01:59:43;;;;;;;15.13;11.60;;;;;;;;;;5010906;28;20037;-73
2023/09/03 02:02:09;;;;;;;11.85;10.75;;;;;;;;;;5006514;28;20030;-73
2023/09/03 02:04:35;;;;;;;17.52;12.20;;;;;;;;;;5006809;28;20512;-73
2023/09/03 02:07:00;;;;;;;15.15;11.93;;;;;;;;;;5005262;28;20046;-73
2023/09/03 02:09:26;;;;;;;19.73;13.20;;;;;;;;;;5007062;28;20425;-73
2023/09/03 02:11:52;;;;;;;16.38;12.85;;;;;;;;;;5005038;28;20229;-73
2023/09/03 02:14:17;;;;;;;21.33;13.65;;;;;;;;;;5003971;28;20070;-73
2023/09/03 02:16:43;;;;;;;13.18;11.90;;;;;;;;;;5006633;28;20088;-73
2023/09/03 02:19:09;;;;;;;14.25;11.20;;;;;;;;;;5006079;28;20044;-73
2023/09/03 02:21:34;;;;;;;14.00;10.57;;;;;;;;;;5004739;28;20092;-73
2023/09/03 02:24:00;;;;;;;13.65;11.32;;;;;;;;;;5008909;28;20034;-73
2023/09/03 02:26:26;;;;;;;12.93;11.27;;;;;;;;;;5003630;28;20041;-73
2023/09/03 02:28:52;;;;;;;13.63;10.90;;;;;;;;;;5004219;28;20037;-72
2023/09/03 02:31:17;;;;;;;12.57;11.38;;;;;;;;;;5003897;28;20398;-73
2023/09/03 02:33:43;;;;;;;13.63;11.63;;;;;;;;;;5016202;28;20112;-72
2023/09/03 02:36:09;;;;;;;13.20;11.77;;;;;;;;;;5002681;28;20626;-73
2023/09/03 02:38:35;;;;;;;15.98;11.75;;;;;;;;;;5005506;28;20030;-72
2023/09/03 02:41:00;;;;;;;13.65;12.35;;;;;;;;;;5006863;28;20037;-73
2023/09/03 02:43:26;;;;;;;13.75;12.20;;;;;;;;;;5021790;28;20030;-73
2023/09/03 02:45:52;;;;;;;16.02;12.73;;;;;;;;;;5003821;28;20575;-73
2023/09/03 02:48:17;;;;;;;18.60;12.50;;;;;;;;;;5006008;28;20034;-72
2023/09/03 02:50:43;;;;;;;15.48;12.52;;;;;;;;;;5006723;28;20092;-73
2023/09/03 02:53:09;;;;;;;16.58;12.38;;;;;;;;;;5002528;28;21457;-73
2023/09/03 02:55:34;;;;;;;14.65;12.45;;;;;;;;;;5005710;28;20034;-73
2023/09/03 02:58:00;;;;;;;12.75;11.43;;;;;;;;;;5006666;28;20084;-72
2023/09/03 03:00:26;;;;;;;17.55;11.93;;;;;;;;;;5008669;28;20128;-79
2023/09/03 03:02:54;;;;;;;14.60;11.80;;;;;;;;;;5004785;28;20041;-73
2023/09/03 03:05:20;;;;;;;14.27;11.73;;;;;;;;;;5005342;28;20489;-72
2023/09/03 03:07:45;;;;;;;17.25;12.20;;;;;;;;;;5004566;28;20045;-72
2023/09/03 03:10:11;;;;;;;13.55;11.77;;;;;;;;;;5005300;28;20042;-72
2023/09/03 03:12:37;;;;;;;14.80;12.00;;;;;;;;;;5004290;28;20103;-73
2023/09/03 03:15:04;;;;;;;12.27;11.13;;;;;;;;;;5021299;28;20133;-73
2023/09/03 03:17:30;;;;;;;12.15;10.95;;;;;;;;;;5005203;28;20045;-73
2023/09/03 03:19:56;;;;;;;13.02;11.30;;;;;;;;;;5019386;28;20410;-73
2023/09/03 03:22:23;;;;;;;12.75;11.52;;;;;;;;;;5018876;28;20042;-72
2023/09/03 03:24:48;;;;;;;12.30;11.10;;;;;;;;;;5005776;28;20049;-73
2023/09/03 03:27:14;;;;;;;14.13;11.80;;;;;;;;;;5005041;28;20033;-72
2023/09/03 03:29:40;;;;;;;12.40;10.75;;;;;;;;;;5002305;28;20049;-73
2023/09/03 03:32:07;;;;;;;14.60;11.13;;;;;;;;;;5004988;28;20037;-73
2023/09/03 03:34:40;;;;;;;19.20;11.38;;;;;;;;;;4989182;28;20061;-73
2023/09/03 03:37:05;;;;;;;12.82;11.50;;;;;;;;;;5004744;28;20049;-72
2023/09/03 03:39:31;;;;;;;17.80;11.88;;;;;;;;;;5006770;28;20030;-73
2023/09/03 03:41:57;;;;;;;12.27;11.02;;;;;;;;;;4988671;28;20595;-72
2023/09/03 03:44:22;;;;;;;13.00;11.60;;;;;;;;;;5004895;28;20121;-73
2023/09/03 03:46:48;;;;;;;15.05;11.50;;;;;;;;;;5007606;28;20042;-72
2023/09/03 03:49:13;;;;;;;12.32;11.07;;;;;;;;;;4985632;28;20088;-73
2023/09/03 03:51:39;;;;;;;15.75;11.70;;;;;;;;;;5006776;28;20563;-73
2023/09/03 03:54:05;;;;;;;12.75;11.45;;;;;;;;;;5007685;28;20045;-73
2023/09/03 03:56:31;;;;;;;14.00;12.45;;;;;;;;;;5004796;28;20076;-73
2023/09/03 03:58:57;;;;;;;12.85;11.30;;;;;;;;;;5005751;28;20065;-73
2023/09/03 04:01:25;;;;;;;12.23;11.13;;;;;;;;;;5021123;28;20453;-73
2023/09/03 04:03:54;;;;;;;12.10;11.00;;;;;;;;;;5002077;28;20444;-73
2023/09/03 04:06:20;;;;;;;14.27;10.98;;;;;;;;;;5002710;28;20549;-73
2023/09/03 04:08:46;;;;;;;12.13;11.05;;;;;;;;;;5007757;28;20121;-73
2023/09/03 04:11:14;;;;;;;17.15;12.45;;;;;;;;;;5005229;28;20025;-73
2023/09/03 04:13:40;;;;;;;13.35;11.85;;;;;;;;;;5005696;28;20557;-72
2023/09/03 04:16:07;;;;;;;13.63;11.77;;;;;;;;;;5001803;28;20556;-73
2023/09/03 04:18:34;;;;;;;15.13;11.68;;;;;;;;;;5004985;28;20048;-73
2023/09/03 04:21:00;;;;;;;12.73;11.40;;;;;;;;;;5002966;28;20073;-73
2023/09/03 04:23:27;;;;;;;12.60;11.48;;;;;;;;;;5004211;28;20036;-73
2023/09/03 04:25:56;;;;;;;12.65;11.43;;;;;;;;;;5001065;28;20116;-72
2023/09/03 04:28:24;;;;;;;12.82;11.50;;;;;;;;;;5009096;28;20041;-72
2023/09/03 04:30:57;;;;;;;12.23;11.00;;;;;;;;;;5001752;28;20022;-72
2023/09/03 04:33:23;;;;;;;12.52;11.30;;;;;;;;;;5001954;28;20033;-72
2023/09/03 04:36:00;;;;;;;12.00;10.88;;;;;;;;;;5001705;28;20034;-72
2023/09/03 04:38:28;;;;;;;13.95;11.57;;;;;;;;;;4987553;28;20406;-73
2023/09/03 04:40:55;;;;;;;11.75;10.65;;;;;;;;;;5006960;28;20048;-72
2023/09/03 04:43:23;;;;;;;12.98;11.55;;;;;;;;;;5003067;28;20037;-72
2023/09/03 04:45:50;;;;;;;12.63;10.68;;;;;;;;;;5017266;28;20041;-72
2023/09/03 04:48:16;;;;;;;12.80;11.15;;;;;;;;;;4999089;28;20046;-72
2023/09/03 04:50:42;;;;;;;11.80;10.85;;;;;;;;;;5003249;28;20034;-72
2023/09/03 04:53:09;;;;;;;15.77;11.15;;;;;;;;;;5020148;28;20489;-72
2023/09/03 04:55:35;;;;;;;13.75;11.13;;;;;;;;;;5011461;28;20108;-72
2023/09/03 04:58:01;;;;;;;12.07;10.93;;;;;;;;;;5018740;28;20573;-72
2023/09/03 05:00:28;;;;;;;12.32;11.23;;;;;;;;;;5003776;28;20041;-72
2023/09/03 05:02:53;;;;;;;17.50;11.20;;;;;;;;;;5020289;28;20049;-72
2023/09/03 05:05:19;;;;;;;12.32;11.10;;;;;;;;;;5019061;28;20034;-72
2023/09/03 05:07:47;;;;;;;12.23;11.00;;;;;;;;;;5003315;28;20037;-72
2023/09/03 05:10:14;;;;;;;11.25;10.18;;;;;;;;;;5003810;28;20030;-72
2023/09/03 05:12:43;;;;;;;11.68;10.57;;;;;;;;;;5006745;28;20635;-72
2023/09/03 05:15:11;;;;;;;11.60;10.35;;;;;;;;;;5001261;28;20048;-72
2023/09/03 05:17:40;;;;;;;10.85;9.80;;;;;;;;;;5003521;28;20057;-72
2023/09/03 05:20:10;;;;;;;11.77;10.68;;;;;;;;;;5001823;28;20498;-72
2023/09/03 05:22:37;;;;;;;11.77;10.48;;;;;;;;;;5017775;28;20038;-72
2023/09/03 05:25:03;;;;;;;11.60;10.30;;;;;;;;;;5020157;28;20052;-72
2023/09/03 05:27:30;;;;;;;13.35;10.98;;;;;;;;;;5003141;28;20033;-72
2023/09/03 05:29:56;;;;;;;16.33;10.85;;;;;;;;;;5006534;28;20042;-72
2023/09/03 05:32:22;;;;;;;12.77;11.07;;;;;;;;;;5005695;28;20437;-73
2023/09/03 05:34:49;;;;;;;11.48;10.48;;;;;;;;;;5010545;28;20046;-72
2023/09/03 05:37:15;;;;;;;12.65;10.63;;;;;;;;;;5006814;28;20033;-72
2023/09/03 05:39:40;;;;;;;12.05;10.60;;;;;;;;;;5004683;28;20420;-72
2023/09/03 05:42:06;;;;;;;11.82;10.75;;;;;;;;;;4996696;28;20038;-72
2023/09/03 05:44:31;;;;;;;11.85;10.85;;;;;;;;;;4990779;28;20057;-72
2023/09/03 05:46:57;;;;;;;11.88;10.73;;;;;;;;;;5023771;28;20038;-72
2023/09/03 05:49:23;;;;;;;14.13;10.60;;;;;;;;;;5004720;28;20042;-73
2023/09/03 05:51:48;;;;;;;10.70;9.90;;;;;;;;;;5000818;28;20065;-73
2023/09/03 05:54:14;;;;;;;11.82;10.63;;;;;;;;;;5003712;28;20585;-72
2023/09/03 05:56:40;;;;;;;10.90;10.00;;;;;;;;;;5023316;28;20041;-72
2023/09/03 05:59:08;;;;;;;12.57;9.88;;;;;;;;;;5008448;28;20125;-73
2023/09/03 06:01:35;;;;;;;10.52;9.68;;;;;;;;;;5022515;28;20440;-72
2023/09/03 06:04:02;;;;;;;12.32;10.27;;;;;;;;;;5006808;28;20052;-73
2023/09/03 06:06:34;;;;;;;10.95;10.02;;;;;;;;;;5006784;28;20033;-73
2023/09/03 06:08:59;;;;;;;10.70;9.88;;;;;;;;;;5022475;28;20222;-72
2023/09/03 06:11:25;;;;;;;14.10;9.45;;;;;;;;;;5008070;28;20038;-72
2023/09/03 06:13:50;;;;;;;10.90;10.00;;;;;;;;;;5007661;28;20149;-72
2023/09/03 06:16:16;;;;;;;10.82;9.93;;;;;;;;;;5007843;28;20096;-72
2023/09/03 06:18:41;;;;;;;11.20;10.10;;;;;;;;;;5006604;28;20448;-72
2023/09/03 06:21:07;;;;;;;11.93;9.50;;;;;;;;;;5004831;28;20520;-73
2023/09/03 06:23:32;;;;;;;9.75;9.05;;;;;;;;;;5006668;28;20041;-72
2023/09/03 06:25:58;;;;;;;10.65;9.63;;;;;;;;;;5007381;28;20052;-72
2023/09/03 06:28:26;;;;;;;11.77;10.25;;;;;;;;;;5004767;28;20046;-72
2023/09/03 06:30:52;;;;;;;10.63;9.85;;;;;;;;;;5022549;28;20148;-72
2023/09/03 06:33:17;;;;;;;10.23;9.38;;;;;;;;;;5006317;28;20076;-73
2023/09/03 06:35:43;;;;;;;10.93;9.85;;;;;;;;;;5004759;28;20498;-73
2023/09/03 06:38:09;;;;;;;13.20;9.52;;;;;;;;;;5009474;28;20044;-72
2023/09/03 06:40:34;;;;;;;10.40;9.40;;;;;;;;;;5020636;28;20030;-73
2023/09/03 06:43:00;;;;;;;11.80;9.77;;;;;;;;;;5040682;28;20060;-73
2023/09/03 06:45:26;;;;;;;10.27;9.43;;;;;;;;;;5023204;28;20068;-73
2023/09/03 06:47:51;;;;;;;10.38;9.43;;;;;;;;;;5018934;28;20073;-72
2023/09/03 06:50:17;;;;;;;12.77;9.90;;;;;;;;;;5026943;28;20038;-72
2023/09/03 06:52:42;;;;;;;11.00;9.90;;;;;;;;;;5030996;28;20288;-72
2023/09/03 06:55:08;;;;;;;10.48;9.68;;;;;;;;;;5010971;28;20033;-73
2023/09/03 06:57:33;;;;;;;11.15;10.15;;;;;;;;;;5004000;28;20029;-72
2023/09/03 06:59:59;;;;;;;10.77;9.85;;;;;;;;;;5005449;28;20042;-73
2023/09/03 07:02:26;;;;;;;10.00;9.30;;;;;;;;;;5003910;28;20034;-73
2023/09/03 07:04:52;;;;;;;10.10;9.10;;;;;;;;;;5006737;28;20166;-72
2023/09/03 07:07:18;;;;;;;9.98;9.10;;;;;;;;;;5005505;28;20037;-73
2023/09/03 07:09:44;;;;;;;9.77;8.98;;;;;;;;;;5004984;28;20516;-72
2023/09/03 07:12:10;;;;;;;10.05;9.13;;;;;;;;;;5001725;28;20108;-72
2023/09/03 07:14:35;;;;;;;9.65;8.85;;;;;;;;;;5021582;28;20037;-73
2023/09/03 07:17:03;;;;;;;9.88;9.00;;;;;;;;;;5006144;28;20341;-72
2023/09/03 07:19:29;;;;;;;9.98;9.15;;;;;;;;;;5006690;28;20038;-72
2023/09/03 07:21:55;;;;;;;9.73;8.85;;;;;;;;;;5004086;28;20115;-73
2023/09/03 07:24:21;;;;;;;9.68;8.88;;;;;;;;;;5005280;28;20492;-73
2023/09/03 07:26:47;;;;;;;9.82;8.93;;;;;;;;;;5006183;28;20038;-73
2023/09/03 07:29:13;;;;;;;10.02;9.13;;;;;;;;;;5005137;28;20038;-73
2023/09/03 07:31:41;;;;;;;13.63;8.98;;;;;;;;;;5006357;28;20453;-73
2023/09/03 07:34:13;;;;;;;9.18;8.48;;;;;;;;;;5002805;28;20040;-72
2023/09/03 07:36:39;;;;;;;9.95;8.85;;;;;;;;;;5005990;28;20479;-73
2023/09/03 07:39:06;;;;;;;10.18;9.18;;;;;;;;;;5004938;28;20042;-73
2023/09/03 07:41:33;;;;;;;11.45;9.40;;;;;;;;;;5004143;28;20534;-73
2023/09/03 07:43:59;;;;;;;9.68;8.73;;;;;;;;;;5006132;28;20048;-72
2023/09/03 07:46:27;;;;;;;10.15;9.20;;;;;;;;;;5005677;28;20030;-73
2023/09/03 07:48:53;;;;;;;9.60;8.70;;;;;;;;;;5005632;28;20038;-73
2023/09/03 07:51:19;;;;;;;10.18;8.85;;;;;;;;;;5005705;28;20044;-73
2023/09/03 07:53:49;;;;;;;10.07;9.18;;;;;;;;;;5005314;28;20044;-73
2023/09/03 07:56:15;;;;;;;10.85;9.38;;;;;;;;;;5005817;28;20485;-73
2023/09/03 07:58:42;;;;;;;9.20;8.40;;;;;;;;;;5003128;28;20133;-73
2023/09/03 08:01:11;;;;;;;9.07;7.82;;;;;;;;;;5020769;28;20038;-73
2023/09/03 08:03:38;;;;;;;8.50;7.80;;;;;;;;;;5005949;28;20137;-73
2023/09/03 08:06:04;;;;;;;8.68;7.97;;;;;;;;;;5004803;28;20452;-73
2023/09/03 08:08:30;;;;;;;9.68;8.70;;;;;;;;;;5005420;28;20056;-73
2023/09/03 08:10:56;;;;;;;9.55;8.63;;;;;;;;;;5005673;28;20466;-73
2023/09/03 08:13:22;;;;;;;9.43;8.50;;;;;;;;;;5006001;28;20042;-73
2023/09/03 08:15:48;;;;;;;11.15;8.95;;;;;;;;;;5004065;28;20084;-73
2023/09/03 08:18:15;;;;;;;10.75;8.60;;;;;;;;;;5005185;28;20040;-73
2023/09/03 08:20:41;;;;;;;9.35;8.48;;;;;;;;;;5005204;28;20709;-73
2023/09/03 08:23:10;;;;;;;10.27;8.35;;;;;;;;;;5006109;28;20445;-73
2023/09/03 08:25:35;;;;;;;10.68;8.60;;;;;;;;;;5004860;28;20100;-73
2023/09/03 08:28:01;;;;;;;9.27;8.20;;;;;;;;;;5002770;28;20034;-73
2023/09/03 08:30:26;;;;;;;9.30;8.02;;;;;;;;;;5005270;28;20026;-73
2023/09/03 08:32:52;;;;;;;8.18;7.55;;;;;;;;;;5005314;28;20041;-73
2023/09/03 08:35:17;;;;;;;8.80;7.93;;;;;;;;;;5005092;28;20087;-73
2023/09/03 08:37:43;;;;;;;9.07;8.32;;;;;;;;;;5003283;28;20045;-73
2023/09/03 08:40:09;;;;;;;13.23;8.52;;;;;;;;;;5004649;28;20029;-73
2023/09/03 08:42:40;;;;;;;12.57;8.55;;;;;;;;;;5005623;28;20041;-73
2023/09/03 08:45:10;;;;;;;8.63;7.82;;;;;;;;;;5005299;28;20059;-73
2023/09/03 08:47:39;;;;;;;8.55;7.93;;;;;;;;;;5002757;28;20065;-73
2023/09/03 08:50:07;;;;;;;11.63;7.88;;;;;;;;;;5003815;28;20041;-73
2023/09/03 08:52:34;;;;;;;8.32;7.40;;;;;;;;;;5004598;28;20417;-73
2023/09/03 08:55:00;;;;;;;9.68;7.00;;;;;;;;;;5004982;28;20034;-73
2023/09/03 08:57:28;;;;;;;8.00;7.20;;;;;;;;;;5003900;28;20088;-73
2023/09/03 08:59:56;;;;;;;10.65;7.20;;;;;;;;;;5005174;28;20038;-73
2023/09/03 09:02:23;;;;;;;7.82;7.00;;;;;;;;;;5005209;28;20034;-73
2023/09/03 09:04:48;;;;;;;9.27;7.38;;;;;;;;;;5004261;28;20037;-73
2023/09/03 09:07:14;;;;;;;8.65;7.53;;;;;;;;;;5008885;28;20030;-73
2023/09/03 09:09:40;;;;;;;8.00;7.20;;;;;;;;;;5010053;28;20057;-73
2023/09/03 09:12:14;;;;;;;8.38;7.55;;;;;;;;;;5024327;28;20283;-73
2023/09/03 09:15:06;;;;;;;8.10;7.30;;;;;;;;;;5023997;28;20119;-73
2023/09/03 09:17:39;;;;;;;8.18;7.47;;;;;;;;;;5006382;28;20053;-73
2023/09/03 09:20:06;;;;;;;8.45;7.10;;;;;;;;;;5008547;28;20030;-73
2023/09/03 09:22:38;;;;;;;7.75;7.05;;;;;;;;;;5006446;28;20104;-73
2023/09/03 09:25:04;;;;;;;8.30;7.32;;;;;;;;;;5008177;28;20030;-73
2023/09/03 09:27:30;;;;;;;8.30;7.45;;;;;;;;;;5008306;28;20049;-73
2023/09/03 09:30:08;;;;;;;7.80;7.10;;;;;;;;;;5008377;28;20049;-73
2023/09/03 09:32:34;;;;;;;8.40;7.05;;;;;;;;;;5001045;28;20033;-73
2023/09/03 09:35:00;;;;;;;7.97;7.28;;;;;;;;;;5005444;28;20034;-73
2023/09/03 09:37:35;;;;;;;7.20;6.50;;;;;;;;;;5005391;28;20939;-73
2023/09/03 09:40:01;;;;;;;8.68;6.93;;;;;;;;;;5003376;28;20045;-73
2023/09/03 09:42:26;;;;;;;7.93;7.15;;;;;;;;;;5004297;28;20046;-73
2023/09/03 09:44:52;;;;;;;11.20;7.40;;;;;;;;;;5006455;28;20089;-73
2023/09/03 09:47:18;;;;;;;8.82;7.03;;;;;;;;;;5006809;28;20400;-73
2023/09/03 09:49:45;;;;;;;7.93;7.13;;;;;;;;;;5004211;28;20406;-73
2023/09/03 09:52:15;;;;;;;7.70;6.85;;;;;;;;;;5010128;28;20048;-73
2023/09/03 09:54:42;;;;;;;8.80;6.97;;;;;;;;;;5003170;28;20057;-73
2023/09/03 09:57:15;;;;;;;7.47;6.88;;;;;;;;;;5006057;28;20440;-73
2023/09/03 09:59:50;;;;;;;9.18;7.40;;;;;;;;;;4984807;28;20038;-73
2023/09/03 10:02:16;;;;;;;7.57;6.85;;;;;;;;;;5006567;28;20552;-73
2023/09/03 10:04:43;;;;;;;7.85;7.25;;;;;;;;;;5005977;28;20045;-73
2023/09/03 10:07:09;;;;;;;7.32;6.72;;;;;;;;;;5019314;28;20030;-73
2023/09/03 10:09:35;;;;;;;8.35;6.70;;;;;;;;;;5005774;28;20092;-73
2023/09/03 10:12:02;;;;;;;7.07;6.57;;;;;;;;;;5005857;28;20042;-73
2023/09/03 10:14:28;;;;;;;7.63;6.82;;;;;;;;;;5003892;28;20037;-73
2023/09/03 10:16:56;;;;;;;6.78;6.28;;;;;;;;;;5002945;28;20432;-73
2023/09/03 10:19:27;;;;;;;7.00;6.50;;;;;;;;;;5006019;28;20064;-73
2023/09/03 10:21:55;;;;;;;7.10;6.60;;;;;;;;;;5005551;28;20069;-73
2023/09/03 10:24:23;;;;;;;7.43;6.60;;;;;;;;;;5004206;28;20044;-73
2023/09/03 10:26:55;;;;;;;5.80;5.30;;;;;;;;;;5006122;28;20034;-73
2023/09/03 10:29:23;;;;;;;5.78;5.28;;;;;;;;;;5004524;28;20038;-73
2023/09/03 10:31:50;;;;;;;5.38;5.03;;;;;;;;;;4999316;28;20037;-73
2023/09/03 10:34:15;;;;;;;5.63;4.68;;;;;;;;;;5004798;28;20041;-74
2023/09/03 10:37:06;;;;;;;5.75;5.25;;;;;;;;;;5004367;28;20041;-74
2023/09/03 10:39:33;;;;;;;6.40;5.97;;;;;;;;;;5004283;28;20037;-73
2023/09/03 10:42:29;;;;;;;6.20;5.80;;;;;;;;;;5003383;28;20096;-74
2023/09/03 10:45:00;;;;;;;5.90;5.50;;;;;;;;;;5002900;28;20400;-73
2023/09/03 10:47:26;;;;;;;6.00;5.50;;;;;;;;;;5004188;28;20436;-74
2023/09/03 10:49:54;;;;;;;6.47;5.75;;;;;;;;;;5003698;28;20569;-74
2023/09/03 10:52:26;;;;;;;6.90;5.30;;;;;;;;;;5003621;28;20029;-74
2023/09/03 10:55:18;;;;;;;6.07;5.60;;;;;;;;;;5005494;28;20466;-74
2023/09/03 10:57:45;;;;;;;5.97;5.55;;;;;;;;;;5020229;28;20101;-74
2023/09/03 11:00:20;;;;;;;6.00;5.60;;;;;;;;;;5004168;28;20099;-74
2023/09/03 11:02:46;;;;;;;6.05;5.65;;;;;;;;;;5020740;28;20038;-74
2023/09/03 11:05:19;;;;;;;6.55;6.15;;;;;;;;;;5005044;28;20040;-75
2023/09/03 11:07:46;;;;;;;5.90;5.60;;;;;;;;;;5003614;28;20065;-73
2023/09/03 11:10:21;;;;;;;6.10;5.60;;;;;;;;;;4987402;28;20424;-74
2023/09/03 11:12:47;;;;;;;5.78;5.47;;;;;;;;;;5000631;28;20038;-74
2023/09/03 11:15:17;;;;;;;6.00;5.65;;;;;;;;;;4995405;28;20074;-74
2023/09/03 11:17:49;;;;;;;6.25;5.75;;;;;;;;;;4998512;28;20041;-74
2023/09/03 11:20:34;;;;;;;6.15;5.65;;;;;;;;;;5001002;28;20045;-73
2023/09/03 11:23:02;;;;;;;6.30;5.80;;;;;;;;;;5021283;28;20044;-73
2023/09/03 11:25:38;;;;;;;6.00;5.60;;;;;;;;;;5004041;28;20042;-73
2023/09/03 11:28:05;;;;;;;6.40;5.93;;;;;;;;;;5006131;28;20379;-74
2023/09/03 11:30:31;;;;;;;6.35;5.95;;;;;;;;;;5002145;28;20403;-74
2023/09/03 11:32:57;;;;;;;6.10;5.70;;;;;;;;;;5002081;28;20045;-73
2023/09/03 11:35:23;;;;;;;6.90;6.30;;;;;;;;;;5003336;28;20133;-74
2023/09/03 11:37:50;;;;;;;6.68;5.93;;;;;;;;;;5004741;28;20501;-74
2023/09/03 11:40:16;;;;;;;6.70;6.10;;;;;;;;;;5005084;28;20034;-74
2023/09/03 11:42:43;;;;;;;6.80;6.15;;;;;;;;;;5000952;28;20077;-74
2023/09/03 11:45:11;;;;;;;6.80;6.32;;;;;;;;;;5005938;28;20041;-73
2023/09/03 11:47:45;;;;;;;6.73;6.27;;;;;;;;;;5004453;28;20126;-74
2023/09/03 11:50:15;;;;;;;6.75;6.25;;;;;;;;;;5002532;28;20034;-74
2023/09/03 11:52:55;;;;;;;6.60;6.20;;;;;;;;;;5010994;28;20404;-74
2023/09/03 11:55:25;;;;;;;6.70;6.20;;;;;;;;;;5002967;28;20033;-74
2023/09/03 11:57:51;;;;;;;6.65;5.95;;;;;;;;;;5000969;28;20115;-73
2023/09/03 12:00:18;;;;;;;6.60;6.20;;;;;;;;;;5006621;28;20445;-73
2023/09/03 12:02:44;;;;;;;6.75;6.30;;;;;;;;;;5002609;28;20026;-74
2023/09/03 12:05:10;;;;;;;7.00;6.50;;;;;;;;;;5005105;28;20030;-73
2023/09/03 12:07:36;;;;;;;6.90;6.40;;;;;;;;;;5005114;28;20136;-73
2023/09/03 12:10:01;;;;;;;6.97;6.57;;;;;;;;;;5005658;28;20034;-74
2023/09/03 12:12:27;;;;;;;7.10;6.60;;;;;;;;;;5005230;28;20034;-73
2023/09/03 12:14:53;;;;;;;7.53;6.93;;;;;;;;;;5003419;28;21497;-74
2023/09/03 12:17:25;;;;;;;7.13;6.72;;;;;;;;;;5003818;28;20048;-74
2023/09/03 12:19:51;;;;;;;7.05;6.55;;;;;;;;;;5003326;28;20118;-74
2023/09/03 12:22:19;;;;;;;7.40;6.90;;;;;;;;;;5003103;28;20038;-74
2023/09/03 12:24:46;;;;;;;7.25;6.75;;;;;;;;;;5001963;28;20065;-73
2023/09/03 12:27:11;;;;;;;7.80;7.30;;;;;;;;;;5007713;28;20042;-73
2023/09/03 12:29:39;;;;;;;6.90;6.40;;;;;;;;;;5003686;28;20021;-73
2023/09/03 12:32:07;;;;;;;7.20;6.70;;;;;;;;;;5005576;28;20038;-73
2023/09/03 12:34:33;;;;;;;6.95;6.45;;;;;;;;;;5003272;28;20504;-72
2023/09/03 12:36:59;;;;;;;6.60;6.20;;;;;;;;;;5004168;28;20038;-73
2023/09/03 12:39:31;;;;;;;7.20;6.70;;;;;;;;;;5003392;28;20038;-72
2023/09/03 12:42:01;;;;;;;7.30;6.75;;;;;;;;;;5003457;28;20117;-73
2023/09/03 12:44:27;;;;;;;7.32;6.82;;;;;;;;;;5000034;28;20532;-73
2023/09/03 12:46:57;;;;;;;7.05;6.65;;;;;;;;;;5003602;28;20106;-72
2023/09/03 12:49:23;;;;;;;6.90;6.50;;;;;;;;;;4985949;28;20038;-73
2023/09/03 12:51:49;;;;;;;7.13;6.70;;;;;;;;;;4997510;28;20178;-72
2023/09/03 12:54:15;;;;;;;7.20;6.70;;;;;;;;;;4995915;28;20038;-73
2023/09/03 12:56:41;;;;;;;7.45;6.70;;;;;;;;;;5001576;28;20041;-72
2023/09/03 12:59:06;;;;;;;7.30;6.80;;;;;;;;;;5012608;28;20536;-73
2023/09/03 13:01:37;;;;;;;7.25;6.85;;;;;;;;;;4999137;28;20490;-73
2023/09/03 13:04:03;;;;;;;7.00;6.60;;;;;;;;;;5002502;28;20034;-73
2023/09/03 13:06:29;;;;;;;7.30;6.80;;;;;;;;;;4994652;28;20084;-73
2023/09/03 13:08:55;;;;;;;7.55;6.97;;;;;;;;;;5003963;28;20034;-73
2023/09/03 13:11:20;;;;;;;7.35;6.85;;;;;;;;;;5005381;28;20496;-73
2023/09/03 13:13:52;;;;;;;7.38;6.93;;;;;;;;;;5004720;28;20042;-72
2023/09/03 13:16:21;;;;;;;7.70;7.10;;;;;;;;;;5003629;28;20142;-73
2023/09/03 13:18:50;;;;;;;7.90;7.30;;;;;;;;;;5005529;28;20034;-73
2023/09/03 13:21:16;;;;;;;7.88;7.38;;;;;;;;;;4999145;28;20120;-72
2023/09/03 13:23:42;;;;;;;8.05;7.45;;;;;;;;;;4998571;28;20110;-72
2023/09/03 13:26:08;;;;;;;7.53;6.93;;;;;;;;;;5002842;28;20126;-73
2023/09/03 13:28:33;;;;;;;7.38;6.88;;;;;;;;;;5002453;28;20042;-73
2023/09/03 13:31:01;;;;;;;7.63;7.15;;;;;;;;;;5003647;28;20397;-73
2023/09/03 13:33:27;;;;;;;7.35;6.95;;;;;;;;;;5002755;28;20038;-73
2023/09/03 13:35:54;;;;;;;7.80;7.30;;;;;;;;;;5014377;28;20061;-74
2023/09/03 13:38:19;;;;;;;7.85;7.35;;;;;;;;;;5003940;28;20389;-74
2023/09/03 13:40:45;;;;;;;8.30;7.60;;;;;;;;;;5004653;28;20034;-73
2023/09/03 13:43:11;;;;;;;8.10;7.38;;;;;;;;;;5006173;28;20127;-72
2023/09/03 13:45:36;;;;;;;8.02;7.38;;;;;;;;;;5007893;28;20334;-73
2023/09/03 13:48:02;;;;;;;7.45;7.03;;;;;;;;;;5003419;28;20707;-73
2023/09/03 13:50:28;;;;;;;7.38;6.97;;;;;;;;;;5001220;28;20037;-73
2023/09/03 13:52:56;;;;;;;8.10;7.40;;;;;;;;;;5004713;28;20046;-73
2023/09/03 13:55:25;;;;;;;7.90;7.40;;;;;;;;;;5004024;28;20030;-73
2023/09/03 13:57:52;;;;;;;7.40;6.90;;;;;;;;;;5004507;28;20422;-73
2023/09/03 14:00:19;;;;;;;7.90;7.40;;;;;;;;;;5002065;28;20405;-73
2023/09/03 14:02:45;;;;;;;7.70;7.00;;;;;;;;;;5007136;28;20041;-73
2023/09/03 14:05:11;;;;;;;7.88;7.38;;;;;;;;;;5006061;28;20386;-73
2023/09/03 14:07:37;;;;;;;8.10;7.57;;;;;;;;;;4982947;28;20561;-73
2023/09/03 14:10:03;;;;;;;8.00;7.50;;;;;;;;;;5004606;28;20026;-73
2023/09/03 14:12:29;;;;;;;7.95;7.50;;;;;;;;;;5006347;28;20037;-73
2023/09/03 14:14:54;;;;;;;7.60;7.10;;;;;;;;;;5004023;28;20041;-73
2023/09/03 14:17:20;;;;;;;7.80;7.30;;;;;;;;;;5005513;28;20100;-73
2023/09/03 14:19:47;;;;;;;8.05;7.53;;;;;;;;;;5001682;28;20121;-73
2023/09/03 14:22:14;;;;;;;7.95;7.35;;;;;;;;;;5020398;28;20543;-73
2023/09/03 14:24:40;;;;;;;7.53;7.13;;;;;;;;;;5015771;28;20069;-73
2023/09/03 14:27:06;;;;;;;8.00;7.40;;;;;;;;;;5005760;28;20251;-73
2023/09/03 14:29:32;;;;;;;8.07;7.47;;;;;;;;;;5006187;28;20321;-73
2023/09/03 14:31:59;;;;;;;7.93;7.22;;;;;;;;;;5003767;28;20092;-72
2023/09/03 14:34:25;;;;;;;7.95;7.45;;;;;;;;;;5020117;28;20489;-73